Time;durP1;ratioP1;P1;durP2;ratioP2;P2;SDS_P1;SDS_P2;PMS_P1;PMS_P2;Temp;Humidity;BMP_temperature;BMP_pressure;BME280_temperature;BME280_humidity;BME280_pressure;Samples;Min_cycle;Max_cycle;Signal;HPM_P1;HPM_P2
2023/11/17 00:00:48;;;;;;;3.00;2.70;;;;;;;2.55;100.00;100218.05;88745;279;136630;-71
2023/11/17 00:02:50;;;;;;;3.50;3.30;;;;;;;2.46;100.00;100205.89;88866;280;22525;-74
2023/11/17 00:04:52;;;;;;;3.20;3.00;;;;;;;2.55;100.00;100220.98;88799;279;137590;-73
2023/11/17 00:06:54;;;;;;;4.10;3.90;;;;;;;2.57;100.00;100220.51;88992;279;22671;-76
2023/11/17 00:08:58;;;;;;;2.60;2.40;;;;;;;2.57;100.00;100221.86;88778;279;137300;-73
2023/11/17 00:11:00;;;;;;;3.70;3.40;;;;;;;2.57;100.00;100224.30;88767;280;22534;-73
2023/11/17 00:13:01;;;;;;;3.40;3.20;;;;;;;2.57;100.00;100222.71;88709;280;137665;-74
2023/11/17 00:15:06;;;;;;;3.10;2.90;;;;;;;2.60;100.00;100218.45;88823;280;22735;-76
2023/11/17 00:17:10;;;;;;;;;;;;;;;2.61;100.00;100221.86;88689;280;136924;-75
2023/11/17 00:19:13;;;;;;;2.30;2.10;;;;;;;2.63;100.00;100221.17;88929;272;23745;-70
2023/11/17 00:21:17;;;;;;;2.20;2.10;;;;;;;2.63;100.00;100224.27;88631;279;135927;-73
2023/11/17 00:23:19;;;;;;;2.60;2.40;;;;;;;2.63;100.00;100225.17;88695;282;23724;-74
2023/11/17 00:25:22;;;;;;;2.50;2.30;;;;;;;2.61;100.00;100224.32;88824;282;136766;-76
2023/11/17 00:27:24;;;;;;;2.80;2.60;;;;;;;2.60;100.00;100221.77;88650;283;22575;-76
2023/11/17 00:29:32;;;;;;;3.70;3.40;;;;;;;2.60;100.00;100218.63;88892;281;136549;-76
2023/11/17 00:31:35;;;;;;;4.20;2.60;;;;;;;2.59;100.00;100216.96;88617;275;22561;-76
2023/11/17 00:33:38;;;;;;;3.40;2.90;;;;;;;2.58;100.00;100217.96;88624;281;136343;-71
2023/11/17 00:35:40;;;;;;;3.00;2.80;;;;;;;2.57;100.00;100218.55;88916;276;23756;-69
2023/11/17 00:37:43;;;;;;;3.00;2.80;;;;;;;2.56;100.00;100220.89;88473;273;136185;-73
2023/11/17 00:39:47;;;;;;;2.60;2.50;;;;;;;2.53;100.00;100222.60;88801;272;22527;-67
2023/11/17 00:41:49;;;;;;;2.70;2.50;;;;;;;2.48;100.00;100221.25;88641;279;136586;-74
2023/11/17 00:43:51;;;;;;;2.40;2.30;;;;;;;2.45;100.00;100219.80;88883;272;22527;-74
2023/11/17 00:46:00;;;;;;;2.50;2.30;;;;;;;2.42;100.00;100224.44;88671;278;137636;-75
2023/11/17 00:48:03;;;;;;;2.60;2.50;;;;;;;2.44;100.00;100227.23;89041;282;23974;-72
2023/11/17 00:50:10;;;;;;;2.20;2.10;;;;;;;2.46;100.00;100226.48;89485;282;22529;-75
2023/11/17 00:52:13;;;;;;;3.00;2.80;;;;;;;2.48;100.00;100233.33;89083;280;137429;-72
2023/11/17 00:54:15;;;;;;;2.50;2.30;;;;;;;2.49;100.00;100235.21;88702;274;24011;-73
2023/11/17 00:56:18;;;;;;;2.30;2.20;;;;;;;2.49;100.00;100240.77;88760;273;137666;-76
2023/11/17 00:58:21;;;;;;;2.90;2.70;;;;;;;2.50;100.00;100239.45;88655;282;26231;-72
2023/11/17 01:00:23;;;;;;;2.90;2.70;;;;;;;2.53;100.00;100245.05;88728;280;136820;-72
2023/11/17 01:02:25;;;;;;;2.90;2.20;;;;;;;2.54;100.00;100247.40;88784;280;22531;-72
2023/11/17 01:04:27;;;;;;;2.60;2.40;;;;;;;2.55;100.00;100248.34;88503;274;137308;-72
2023/11/17 01:06:29;;;;;;;2.80;2.60;;;;;;;2.57;100.00;100246.45;88806;281;25182;-69
2023/11/17 01:08:32;;;;;;;2.90;2.60;;;;;;;2.59;100.00;100250.31;88478;277;137650;-72
2023/11/17 01:10:35;;;;;;;3.40;3.00;;;;;;;2.52;100.00;100240.39;88599;281;22534;-71
2023/11/17 01:12:37;;;;;;;2.80;2.30;;;;;;;2.56;100.00;100254.21;88640;273;138288;-71
2023/11/17 01:14:40;;;;;;;2.90;2.70;;;;;;;2.51;100.00;100250.45;88627;280;24049;-71
2023/11/17 01:16:42;;;;;;;3.10;2.20;;;;;;;2.50;100.00;100250.16;88742;277;136409;-72
2023/11/17 01:18:44;;;;;;;2.80;2.40;;;;;;;2.49;100.00;100249.76;88716;280;26334;-71
2023/11/17 01:20:46;;;;;;;2.90;2.70;;;;;;;2.49;100.00;100250.24;88701;279;137064;-75
2023/11/17 01:22:48;;;;;;;2.90;2.70;;;;;;;2.50;100.00;100249.10;88853;271;24011;-71
2023/11/17 01:24:50;;;;;;;3.00;2.80;;;;;;;2.51;100.00;100252.55;88601;280;137104;-72
2023/11/17 01:26:52;;;;;;;2.80;2.60;;;;;;;2.53;100.00;100252.05;88661;280;26198;-75
2023/11/17 01:28:54;;;;;;;2.60;2.40;;;;;;;2.54;100.00;100250.38;88637;281;137664;-73
2023/11/17 01:30:56;;;;;;;3.70;2.80;;;;;;;2.54;100.00;100248.79;88994;279;24068;-71
2023/11/17 01:32:59;;;;;;;2.10;2.00;;;;;;;2.56;100.00;100251.98;88760;277;137452;-71
2023/11/17 01:35:01;;;;;;;4.20;3.60;;;;;;;2.47;100.00;100239.06;88812;280;24027;-74
2023/11/17 01:37:04;;;;;;;3.00;2.80;;;;;;;2.56;100.00;100252.30;88684;281;136370;-71
2023/11/17 01:39:09;;;;;;;2.40;2.30;;;;;;;2.56;100.00;100244.09;88871;281;22545;-71
2023/11/17 01:41:11;;;;;;;2.50;2.30;;;;;;;2.56;100.00;100244.23;88640;282;136656;-71
2023/11/17 01:43:15;;;;;;;1.80;1.70;;;;;;;2.56;100.00;100240.78;88793;282;26349;-68
2023/11/17 01:45:17;;;;;;;2.20;2.10;;;;;;;2.54;100.00;100236.15;88483;279;136973;-70
2023/11/17 01:47:20;;;;;;;1.90;1.50;;;;;;;2.51;100.00;100240.45;88819;279;22537;-71
2023/11/17 01:49:22;;;;;;;2.40;2.30;;;;;;;2.49;100.00;100237.51;88137;279;758585;-74
2023/11/17 01:51:25;;;;;;;2.80;2.60;;;;;;;2.45;100.00;100235.04;88836;282;23327;-71
2023/11/17 01:53:28;;;;;;;2.20;2.00;;;;;;;2.44;100.00;100239.30;88898;272;136815;-69
2023/11/17 01:55:30;;;;;;;2.20;2.00;;;;;;;2.46;100.00;100236.66;88577;280;22531;-71
2023/11/17 01:57:37;;;;;;;2.20;2.10;;;;;;;2.47;100.00;100232.39;88546;280;137112;-72
2023/11/17 01:59:39;;;;;;;2.00;1.90;;;;;;;2.47;100.00;100233.66;88582;282;24021;-71
2023/11/17 02:01:42;;;;;;;2.90;2.70;;;;;;;2.46;100.00;100230.40;88461;281;136828;-72
2023/11/17 02:03:45;;;;;;;2.60;2.50;;;;;;;2.43;100.00;100223.64;88701;282;22618;-72
2023/11/17 02:05:53;;;;;;;2.40;2.30;;;;;;;2.38;100.00;100219.69;88670;278;137827;-72
2023/11/17 02:07:58;;;;;;;3.60;2.20;;;;;;;2.35;100.00;100218.60;88967;272;25223;-76
2023/11/17 02:10:13;;;;;;;2.70;2.20;;;;;;;2.34;100.00;100220.40;88755;275;136079;-73
2023/11/17 02:12:46;;;;;;;2.10;2.00;;;;;;;2.33;100.00;100220.44;88694;280;136994;-73
2023/11/17 02:14:52;;;;;;;2.50;2.20;;;;;;;2.33;100.00;100223.42;88935;273;24049;-74
2023/11/17 02:16:54;;;;;;;2.70;2.50;;;;;;;2.30;100.00;100220.23;88713;280;138015;-73
2023/11/17 02:18:59;;;;;;;2.40;2.20;;;;;;;2.28;100.00;100225.98;88784;282;25271;-73
2023/11/17 02:21:05;;;;;;;2.70;2.50;;;;;;;2.25;100.00;100225.42;88792;282;137623;-74
2023/11/17 02:23:15;;;;;;;2.80;2.60;;;;;;;2.22;100.00;100226.42;88730;282;22542;-72
2023/11/17 02:25:28;;;;;;;2.70;2.50;;;;;;;2.20;100.00;100225.40;88683;275;137844;-69
2023/11/17 02:27:50;;;;;;;3.40;2.80;;;;;;;2.20;100.00;100226.08;88657;274;22511;-72
2023/11/17 02:30:02;;;;;;;4.70;3.50;;;;;;;2.19;100.00;100224.23;88655;280;136345;-74
2023/11/17 02:32:05;;;;;;;2.60;2.50;;;;;;;2.20;100.00;100224.31;88831;276;136808;-74
2023/11/17 02:34:09;;;;;;;2.90;2.70;;;;;;;2.20;100.00;100221.13;88875;276;22534;-71
2023/11/17 02:36:17;;;;;;;3.00;2.80;;;;;;;2.19;100.00;100220.38;88580;282;136740;-72
2023/11/17 02:38:20;;;;;;;2.80;2.60;;;;;;;2.17;100.00;100217.05;88584;281;22537;-72
2023/11/17 02:40:23;;;;;;;2.10;1.90;;;;;;;2.17;100.00;100218.29;88705;273;137311;-72
2023/11/17 02:42:26;;;;;;;2.20;2.10;;;;;;;2.18;100.00;100217.69;88929;272;25265;-71
2023/11/17 02:44:33;;;;;;;2.40;2.30;;;;;;;2.18;100.00;100220.08;88891;276;136494;-73
2023/11/17 02:46:35;;;;;;;3.90;2.80;;;;;;;2.19;100.00;100220.23;88817;273;22574;-72
2023/11/17 02:48:38;;;;;;;3.60;2.30;;;;;;;2.17;100.00;100221.29;88655;276;136611;-72
2023/11/17 02:50:53;;;;;;;2.80;2.60;;;;;;;2.12;100.00;100215.31;89032;277;22686;-72
2023/11/17 02:53:06;;;;;;;2.90;2.70;;;;;;;2.11;100.00;100215.30;88818;279;137663;-72
2023/11/17 02:55:13;;;;;;;2.40;2.30;;;;;;;2.09;100.00;100215.63;88935;272;24091;-71
2023/11/17 02:57:20;;;;;;;3.20;3.00;;;;;;;2.07;100.00;100216.46;88615;272;137522;-72
2023/11/17 02:59:23;;;;;;;2.90;2.70;;;;;;;2.06;100.00;100215.52;89005;275;25194;-71
2023/11/17 03:01:25;;;;;;;3.10;2.90;;;;;;;2.07;100.00;100216.68;88793;276;138235;-71
2023/11/17 03:03:27;;;;;;;2.70;2.50;;;;;;;2.08;100.00;100215.59;88953;281;24141;-71
2023/11/17 03:05:30;;;;;;;3.40;3.20;;;;;;;2.09;100.00;100216.34;88999;280;136566;-69
2023/11/17 03:07:34;;;;;;;2.90;2.80;;;;;;;2.09;100.00;100212.29;88878;276;22530;-71
2023/11/17 03:09:37;;;;;;;;;;;;;;;2.08;100.00;100214.67;88832;280;137988;-71
2023/11/17 03:11:41;;;;;;;3.20;2.40;;;;;;;2.07;100.00;100214.36;88778;277;24023;-68
2023/11/17 03:13:44;;;;;;;2.10;1.90;;;;;;;2.08;100.00;100217.85;88494;282;136599;-70
2023/11/17 03:15:46;;;;;;;2.80;2.70;;;;;;;2.09;100.00;100217.75;88985;278;22571;-70
2023/11/17 03:17:51;;;;;;;3.40;2.90;;;;;;;2.07;100.00;100216.86;88802;276;136594;-72
2023/11/17 03:19:53;;;;;;;;;;;;;;;2.08;100.00;100217.63;88844;281;24017;-71
2023/11/17 03:21:57;;;;;;;3.00;2.80;;;;;;;2.08;100.00;100219.73;88889;272;122992;-71
2023/11/17 03:23:59;;;;;;;4.00;3.60;;;;;;;2.05;100.00;100222.27;88869;272;24161;-71
2023/11/17 03:26:01;;;;;;;2.90;2.80;;;;;;;2.03;100.00;100222.52;88731;273;136342;-71
2023/11/17 03:28:03;;;;;;;3.40;3.20;;;;;;;2.00;100.00;100221.69;88365;280;137250;-70
2023/11/17 03:30:09;;;;;;;3.00;2.80;;;;;;;1.99;100.00;100224.20;88553;272;25541;-70
2023/11/17 03:32:11;;;;;;;4.00;3.30;;;;;;;1.99;100.00;100221.98;88425;280;136449;-71
2023/11/17 03:34:28;;;;;;;3.40;3.10;;;;;;;1.99;100.00;100221.83;88912;273;22621;-72
2023/11/17 03:36:31;;;;;;;3.40;3.20;;;;;;;1.99;100.00;100221.79;88573;279;136275;-71
2023/11/17 03:38:33;;;;;;;3.20;3.00;;;;;;;2.01;100.00;100226.84;88938;273;22535;-71
2023/11/17 03:40:36;;;;;;;3.10;2.90;;;;;;;2.01;100.00;100231.07;88734;278;137450;-70
2023/11/17 03:42:40;;;;;;;3.60;3.30;;;;;;;2.02;100.00;100232.06;88641;272;22552;-70
2023/11/17 03:44:42;;;;;;;3.50;3.10;;;;;;;2.03;100.00;100232.95;88460;276;136889;-71
2023/11/17 03:46:48;;;;;;;4.20;3.60;;;;;;;2.06;100.00;100231.86;89047;274;22527;-71
2023/11/17 03:48:52;;;;;;;3.50;3.30;;;;;;;2.07;100.00;100231.05;88769;276;136516;-71
2023/11/17 03:50:54;;;;;;;3.70;3.50;;;;;;;2.08;100.00;100231.63;88912;276;22530;-71
2023/11/17 03:52:59;;;;;;;3.30;3.10;;;;;;;2.09;100.00;100232.27;88752;273;137750;-70
2023/11/17 03:55:01;;;;;;;4.10;3.70;;;;;;;2.09;100.00;100233.13;88755;274;22537;-71
2023/11/17 03:57:03;;;;;;;3.80;3.40;;;;;;;2.09;100.00;100232.66;88700;280;136554;-72
2023/11/17 03:59:09;;;;;;;4.10;3.40;;;;;;;2.09;100.00;100230.32;88968;272;25105;-70
2023/11/17 04:01:11;;;;;;;4.80;4.30;;;;;;;2.08;100.00;100231.30;88863;276;136633;-69
2023/11/17 04:03:13;;;;;;;3.20;2.90;;;;;;;2.09;100.00;100227.73;88539;277;25755;-71
2023/11/17 04:05:16;;;;;;;3.50;3.20;;;;;;;2.11;100.00;100231.59;88580;274;136517;-71
2023/11/17 04:07:19;;;;;;;4.10;3.40;;;;;;;2.12;100.00;100228.53;88878;272;22537;-70
2023/11/17 04:09:24;;;;;;;3.70;3.40;;;;;;;2.12;100.00;100228.67;88738;276;136570;-73
2023/11/17 04:11:26;;;;;;;3.40;3.20;;;;;;;2.11;100.00;100229.26;88901;278;23084;-71
2023/11/17 04:13:30;;;;;;;3.20;3.00;;;;;;;2.11;100.00;100231.74;88830;277;137694;-73
2023/11/17 04:15:35;;;;;;;3.90;2.90;;;;;;;2.09;100.00;100236.46;88581;276;23705;-71
2023/11/17 04:17:37;;;;;;;3.40;3.20;;;;;;;2.10;100.00;100236.91;88549;272;138085;-71
2023/11/17 04:19:40;;;;;;;3.60;3.30;;;;;;;2.10;100.00;100236.55;88842;277;22539;-72
2023/11/17 04:21:43;;;;;;;4.30;3.00;;;;;;;2.10;100.00;100240.23;88471;277;136748;-69
2023/11/17 04:23:45;;;;;;;4.00;3.30;;;;;;;2.11;100.00;100239.46;88554;278;22536;-71
2023/11/17 04:25:49;;;;;;;4.00;3.70;;;;;;;2.12;100.00;100241.11;88700;272;137619;-73
2023/11/17 04:27:51;;;;;;;3.20;2.70;;;;;;;2.14;100.00;100236.23;88771;276;22568;-73
2023/11/17 04:29:52;;;;;;;5.20;3.50;;;;;;;2.12;100.00;100230.60;88669;272;137980;-69
2023/11/17 04:31:54;;;;;;;3.80;3.60;;;;;;;2.07;100.00;100231.71;88687;274;26263;-71
2023/11/17 04:33:56;;;;;;;4.40;4.10;;;;;;;1.96;100.00;100219.55;88434;272;136897;-70
2023/11/17 04:35:58;;;;;;;4.00;3.40;;;;;;;2.04;100.00;100229.43;88569;276;25136;-71
2023/11/17 04:38:00;;;;;;;3.80;3.50;;;;;;;2.04;100.00;100227.34;88620;276;139928;-70
2023/11/17 04:40:03;;;;;;;3.60;3.10;;;;;;;2.05;100.00;100226.48;88527;276;137384;-70
2023/11/17 04:42:06;;;;;;;3.60;3.30;;;;;;;2.08;100.00;100228.17;88546;274;22548;-71
2023/11/17 04:44:08;;;;;;;3.40;3.20;;;;;;;2.10;100.00;100228.63;88490;276;138259;-71
2023/11/17 04:46:18;;;;;;;4.30;4.00;;;;;;;2.12;100.00;100229.89;88776;273;25108;-71
2023/11/17 04:48:20;;;;;;;4.10;3.90;;;;;;;2.12;100.00;100231.77;88757;278;137318;-70
2023/11/17 04:50:22;;;;;;;3.60;3.30;;;;;;;2.14;100.00;100229.36;88784;273;25192;-69
2023/11/17 04:52:25;;;;;;;4.30;4.00;;;;;;;2.15;100.00;100230.66;88412;278;136622;-70
2023/11/17 04:54:27;;;;;;;3.80;3.50;;;;;;;2.14;100.00;100227.79;88598;278;22561;-71
2023/11/17 04:56:30;;;;;;;4.10;3.80;;;;;;;2.10;100.00;100225.85;88686;277;137204;-71
2023/11/17 04:58:32;;;;;;;3.80;3.50;;;;;;;2.05;100.00;100231.04;88727;273;25207;-72
2023/11/17 05:00:34;;;;;;;4.40;4.00;;;;;;;2.03;100.00;100233.34;88708;273;136609;-72
2023/11/17 05:02:38;;;;;;;4.20;3.70;;;;;;;2.03;100.00;100230.02;88327;271;25206;-71
2023/11/17 05:04:42;;;;;;;3.50;3.30;;;;;;;2.02;100.00;100230.29;88585;272;136949;-70
2023/11/17 05:06:44;;;;;;;4.20;3.80;;;;;;;2.00;100.00;100232.23;88963;272;22534;-72
2023/11/17 05:08:47;;;;;;;4.50;4.20;;;;;;;2.00;100.00;100228.73;88622;276;136844;-70
2023/11/17 05:10:49;;;;;;;5.20;4.80;;;;;;;1.99;100.00;100227.71;88392;275;25281;-69
2023/11/17 05:12:52;;;;;;;4.30;3.90;;;;;;;2.01;100.00;100227.40;88508;272;136805;-69
2023/11/17 05:14:54;;;;;;;4.20;3.90;;;;;;;2.02;100.00;100227.63;88630;272;24015;-71
2023/11/17 05:17:06;;;;;;;4.50;3.50;;;;;;;2.04;100.00;100232.40;88410;275;136891;-68
2023/11/17 05:19:10;;;;;;;4.90;4.40;;;;;;;2.03;100.00;100229.48;88748;277;22547;-73
2023/11/17 05:21:13;;;;;;;4.00;3.70;;;;;;;2.00;100.00;100227.10;88790;272;136622;-69
2023/11/17 05:23:16;;;;;;;4.20;3.90;;;;;;;1.99;100.00;100228.29;88398;273;22544;-68
2023/11/17 05:25:19;;;;;;;6.60;4.20;;;;;;;1.99;100.00;100232.98;88304;273;136807;-68
2023/11/17 05:27:21;;;;;;;5.10;4.60;;;;;;;2.01;100.00;100235.41;88526;274;25118;-69
2023/11/17 05:29:23;;;;;;;5.10;4.70;;;;;;;2.04;100.00;100244.13;88559;277;136999;-69
2023/11/17 05:31:27;;;;;;;4.70;3.80;;;;;;;2.04;100.00;100249.16;88540;276;22540;-70
2023/11/17 05:33:30;;;;;;;4.30;3.90;;;;;;;2.05;100.00;100250.30;88458;280;136826;-70
2023/11/17 05:35:32;;;;;;;5.20;4.80;;;;;;;2.07;100.00;100253.50;88630;278;23720;-69
2023/11/17 05:37:35;;;;;;;4.90;4.50;;;;;;;2.09;100.00;100255.45;88284;275;136286;-69
2023/11/17 05:39:37;;;;;;;6.70;5.20;;;;;;;2.11;100.00;100259.81;88544;275;22645;-67
2023/11/17 05:41:39;;;;;;;5.10;4.70;;;;;;;2.13;100.00;100256.23;88696;273;136825;-75
2023/11/17 05:43:45;;;;;;;5.80;5.30;;;;;;;2.15;100.00;100256.80;88596;272;22546;-73
2023/11/17 05:45:50;;;;;;;4.90;4.50;;;;;;;2.18;100.00;100264.48;88581;277;136995;-74
2023/11/17 05:47:53;;;;;;;5.50;5.10;;;;;;;2.19;100.00;100265.92;88741;272;22524;-76
2023/11/17 05:51:45;;;;;;;5.30;4.80;;;;;;;2.18;100.00;100269.38;86786;303;602589;-71
2023/11/17 05:53:51;;;;;;;5.70;5.10;;;;;;;2.21;100.00;100271.51;87717;284;136175;-77
2023/11/17 05:55:53;;;;;;;7.40;5.40;;;;;;;2.23;100.00;100275.39;87763;286;25118;-71
2023/11/17 05:57:55;;;;;;;5.20;4.80;;;;;;;2.24;100.00;100278.48;87757;286;135988;-74
2023/11/17 05:59:57;;;;;;;5.50;5.10;;;;;;;2.26;100.00;100280.93;88119;288;22699;-69
2023/11/17 06:02:02;;;;;;;6.10;5.50;;;;;;;2.27;100.00;100284.14;88033;279;135946;-74
2023/11/17 06:04:07;;;;;;;5.80;5.40;;;;;;;2.28;100.00;100285.98;88001;280;136898;-75
2023/11/17 06:06:10;;;;;;;7.50;6.20;;;;;;;2.28;100.00;100288.30;87673;278;754746;-77
2023/11/17 06:08:12;;;;;;;8.20;6.70;;;;;;;2.27;100.00;100294.52;88113;278;136712;-71
2023/11/17 06:10:14;;;;;;;6.30;5.30;;;;;;;2.19;100.00;100286.45;88246;277;24055;-68
2023/11/17 06:12:16;;;;;;;6.60;6.00;;;;;;;2.27;100.00;100304.38;88398;278;136986;-78
2023/11/17 06:14:20;;;;;;;7.10;6.40;;;;;;;2.25;100.00;100307.28;88155;277;22542;-76
2023/11/17 06:16:23;;;;;;;6.70;6.20;;;;;;;2.23;100.00;100313.45;88056;277;137911;-78
2023/11/17 06:18:25;;;;;;;6.50;5.90;;;;;;;2.20;100.00;100311.46;88149;280;23144;-75
2023/11/17 06:20:28;;;;;;;8.40;6.90;;;;;;;2.15;100.00;100314.31;88047;287;136363;-71
2023/11/17 06:22:31;;;;;;;9.30;7.50;;;;;;;2.12;100.00;100314.59;88101;282;24065;-78
2023/11/17 06:24:35;;;;;;;8.10;6.80;;;;;;;2.12;100.00;100321.95;88042;282;137898;-78
2023/11/17 06:26:37;;;;;;;6.50;6.00;;;;;;;2.12;100.00;100320.15;88226;278;27547;-79
2023/11/17 06:28:39;;;;;;;6.70;6.10;;;;;;;2.15;100.00;100323.98;88021;279;137873;-78
2023/11/17 06:30:42;;;;;;;9.80;6.10;;;;;;;2.16;100.00;100327.88;88311;277;24208;-76
2023/11/17 06:32:45;;;;;;;5.60;5.10;;;;;;;2.17;100.00;100329.92;88132;277;138015;-77
2023/11/17 06:34:46;;;;;;;5.50;5.00;;;;;;;2.19;100.00;100325.54;88226;282;22524;-76
2023/11/17 06:36:51;;;;;;;6.50;5.70;;;;;;;2.18;100.00;100320.73;87974;285;137733;-76
2023/11/17 06:38:54;;;;;;;5.00;4.70;;;;;;;2.09;100.00;100309.42;88363;277;24173;-76
2023/11/17 06:40:59;;;;;;;6.40;5.80;;;;;;;2.17;100.00;100319.23;88117;277;136167;-76
2023/11/17 06:43:01;;;;;;;6.30;5.80;;;;;;;2.18;100.00;100315.48;88223;285;22543;-72
2023/11/17 06:45:04;;;;;;;7.00;6.00;;;;;;;2.19;100.00;100321.17;88091;277;136154;-77
2023/11/17 06:47:06;;;;;;;11.00;7.80;;;;;;;2.20;100.00;100319.86;88172;281;22537;-76
2023/11/17 06:49:09;;;;;;;7.90;6.50;;;;;;;2.19;100.00;100318.88;88173;278;136480;-75
2023/11/17 06:51:14;;;;;;;8.40;7.30;;;;;;;2.20;100.00;100318.13;88214;279;22666;-73
2023/11/17 06:53:18;;;;;;;7.00;6.20;;;;;;;2.20;100.00;100315.00;88224;277;136305;-72
2023/11/17 06:55:20;;;;;;;9.90;6.40;;;;;;;2.21;100.00;100309.64;88188;277;22548;-73
2023/11/17 06:57:24;;;;;;;7.10;6.00;;;;;;;2.25;100.00;100311.52;88137;277;136314;-74
2023/11/17 06:59:27;;;;;;;6.10;5.50;;;;;;;2.28;100.00;100313.73;88259;281;22530;-76
2023/11/17 07:01:28;;;;;;;6.60;6.00;;;;;;;2.29;100.00;100312.40;88003;281;136525;-75
2023/11/17 07:03:31;;;;;;;6.40;5.80;;;;;;;2.32;100.00;100309.83;88389;276;22531;-72
2023/11/17 07:05:35;;;;;;;7.40;6.20;;;;;;;2.35;100.00;100311.54;88448;277;137602;-74
2023/11/17 07:07:39;;;;;;;8.80;6.10;;;;;;;2.37;100.00;100309.94;88333;279;25760;-74
2023/11/17 07:09:42;;;;;;;5.30;4.90;;;;;;;2.34;100.00;100300.58;88253;277;136384;-73
2023/11/17 07:11:46;;;;;;;8.40;6.30;;;;;;;2.43;100.00;100313.61;88161;283;22595;-77
2023/11/17 07:13:49;;;;;;;6.10;5.50;;;;;;;2.44;100.00;100313.41;88111;276;137228;-73
2023/11/17 07:15:54;;;;;;;8.20;5.30;;;;;;;2.44;100.00;100317.57;88122;276;25083;-73
2023/11/17 07:17:56;;;;;;;6.80;6.10;;;;;;;2.45;100.00;100317.09;88146;276;136305;-74
2023/11/17 07:19:58;;;;;;;6.50;5.80;;;;;;;2.48;100.00;100318.73;88274;283;22557;-74
2023/11/17 07:22:01;;;;;;;9.70;8.10;;;;;;;2.51;100.00;100322.06;88148;279;137526;-72
2023/11/17 07:24:07;;;;;;;11.90;8.50;;;;;;;2.48;100.00;100320.32;88219;277;136621;-74
2023/11/17 07:26:17;;;;;;;8.70;6.30;;;;;;;2.49;100.00;100323.12;88189;275;22544;-75
2023/11/17 07:28:21;;;;;;;6.20;5.60;;;;;;;2.49;100.00;100322.53;88168;277;136468;-74
2023/11/17 07:30:24;;;;;;;8.70;6.60;;;;;;;2.50;100.00;100325.08;88143;284;24025;-75
2023/11/17 07:32:26;;;;;;;6.40;5.70;;;;;;;2.52;100.00;100329.80;88182;276;136449;-74
2023/11/17 07:34:29;;;;;;;5.70;5.20;;;;;;;2.55;100.00;100332.02;88303;283;22546;-74
2023/11/17 07:36:32;;;;;;;6.60;5.40;;;;;;;2.58;100.00;100329.85;88198;281;139821;-76
2023/11/17 07:38:38;;;;;;;8.20;7.40;;;;;;;2.61;100.00;100334.67;88359;275;22524;-76
2023/11/17 07:40:41;;;;;;;7.70;6.70;;;;;;;2.61;100.00;100332.87;88271;276;136356;-77
2023/11/17 07:42:43;;;;;;;10.70;6.10;;;;;;;2.60;100.00;100334.20;88299;283;22554;-74
2023/11/17 07:44:46;;;;;;;6.00;5.00;;;;;;;2.62;100.00;100334.23;88170;276;138735;-74
2023/11/17 07:46:48;;;;;;;5.60;5.10;;;;;;;2.62;100.00;100338.95;88285;276;25137;-73
2023/11/17 07:48:51;;;;;;;7.30;5.40;;;;;;;2.61;100.00;100341.84;88171;283;136302;-71
2023/11/17 07:51:00;;;;;;;6.60;5.70;;;;;;;2.62;100.00;100345.81;88358;275;22548;-71
2023/11/17 07:53:03;;;;;;;6.60;5.90;;;;;;;2.55;100.00;100337.98;88377;273;137502;-73
2023/11/17 07:55:07;;;;;;;6.50;5.60;;;;;;;2.62;100.00;100354.62;88552;281;25216;-74
2023/11/17 07:57:09;;;;;;;6.50;5.90;;;;;;;2.64;100.00;100358.77;88445;280;137546;-76
2023/11/17 07:59:12;;;;;;;5.70;5.20;;;;;;;2.68;100.00;100359.98;88403;273;22550;-74
2023/11/17 08:01:14;;;;;;;8.10;6.40;;;;;;;2.72;100.00;100364.70;88333;273;136223;-73
2023/11/17 08:03:17;;;;;;;10.80;5.80;;;;;;;2.76;100.00;100363.73;88422;273;24023;-72
2023/11/17 08:05:20;;;;;;;7.00;6.10;;;;;;;2.79;100.00;100365.15;88439;273;138069;-71
2023/11/17 08:07:22;;;;;;;6.50;5.90;;;;;;;2.82;100.00;100370.14;88496;273;22707;-72
2023/11/17 08:09:24;;;;;;;8.50;6.50;;;;;;;2.84;100.00;100374.31;88237;274;136475;-72
2023/11/17 08:11:26;;;;;;;8.30;5.60;;;;;;;2.87;100.00;100381.29;88396;274;22478;-73
2023/11/17 08:13:28;;;;;;;10.30;6.20;;;;;;;2.88;100.00;100383.84;88227;275;136796;-71
2023/11/17 08:15:31;;;;;;;8.40;6.20;;;;;;;2.90;100.00;100384.98;88411;281;22530;-74
2023/11/17 08:17:33;;;;;;;6.10;5.60;;;;;;;2.94;100.00;100389.10;88360;275;137565;-70
2023/11/17 08:19:35;;;;;;;8.20;5.80;;;;;;;2.92;100.00;100392.20;88318;277;22556;-70
2023/11/17 08:21:39;;;;;;;7.10;6.40;;;;;;;2.92;100.00;100392.56;88236;277;137490;-72
2023/11/17 08:23:42;;;;;;;7.10;6.40;;;;;;;2.95;100.00;100391.65;88564;273;23749;-73
2023/11/17 08:25:48;;;;;;;15.30;6.80;;;;;;;2.96;100.00;100396.12;88422;275;136415;-72
2023/11/17 08:27:50;;;;;;;8.10;6.20;;;;;;;2.97;100.00;100393.56;88532;273;24216;-72
2023/11/17 08:29:54;;;;;;;7.00;6.30;;;;;;;2.99;100.00;100391.30;88331;273;136177;-71
2023/11/17 08:31:56;;;;;;;7.80;6.20;;;;;;;3.01;100.00;100393.92;88595;273;25857;-71
2023/11/17 08:33:58;;;;;;;6.90;6.20;;;;;;;3.04;100.00;100400.83;88367;273;136654;-72
2023/11/17 08:36:00;;;;;;;7.70;6.90;;;;;;;3.08;100.00;100399.61;88534;277;24196;-72
2023/11/17 08:38:03;;;;;;;7.50;5.80;;;;;;;3.07;100.00;100398.48;88276;279;135704;-71
2023/11/17 08:40:08;;;;;;;8.40;7.50;;;;;;;3.05;100.00;100399.02;88436;277;137938;-70
2023/11/17 08:42:11;;;;;;;10.70;9.60;;;;;;;3.04;100.00;100401.86;88479;273;22530;-70
2023/11/17 08:44:13;;;;;;;9.30;8.40;;;;;;;3.05;100.00;100400.78;88138;274;137855;-71
2023/11/17 08:46:15;;;;;;;8.40;7.30;;;;;;;3.08;100.00;100402.02;88275;275;24297;-70
2023/11/17 08:48:17;;;;;;;12.30;10.10;;;;;;;3.11;100.00;100400.36;88252;273;136857;-72
2023/11/17 08:50:21;;;;;;;8.80;7.60;;;;;;;3.09;100.00;100401.79;88774;280;25236;-71
2023/11/17 08:52:23;;;;;;;10.80;8.60;;;;;;;3.07;100.00;100398.31;88638;280;137738;-72
2023/11/17 08:54:26;;;;;;;12.70;8.60;;;;;;;3.06;100.00;100395.54;88267;275;22607;-73
2023/11/17 08:56:28;;;;;;;13.70;9.70;;;;;;;3.07;100.00;100396.67;88806;273;136969;-69
2023/11/17 08:58:30;;;;;;;10.70;8.80;;;;;;;2.99;100.00;100381.29;88365;273;24037;-71
2023/11/17 09:00:32;;;;;;;13.90;9.60;;;;;;;3.11;100.00;100395.82;88261;277;136777;-73
2023/11/17 09:02:35;;;;;;;8.80;8.00;;;;;;;3.07;100.00;100384.04;88365;274;24125;-74
2023/11/17 09:04:37;;;;;;;10.50;8.00;;;;;;;3.15;100.00;100395.66;88544;275;136518;-74
2023/11/17 09:06:40;;;;;;;11.90;9.50;;;;;;;3.15;100.00;100395.71;88473;282;22676;-73
2023/11/17 09:08:42;;;;;;;12.50;9.70;;;;;;;3.15;100.00;100395.30;88371;280;137835;-72
2023/11/17 09:10:43;;;;;;;9.80;7.90;;;;;;;3.15;100.00;100394.05;88426;281;22942;-73
2023/11/17 09:12:47;;;;;;;10.10;9.10;;;;;;;3.16;100.00;100391.30;88357;278;136137;-73
2023/11/17 09:14:51;;;;;;;10.50;8.00;;;;;;;3.14;100.00;100390.83;88690;273;22543;-72
2023/11/17 09:16:55;;;;;;;11.80;8.00;;;;;;;3.14;100.00;100390.27;88318;273;136988;-71
2023/11/17 09:18:59;;;;;;;11.80;8.30;;;;;;;3.16;100.00;100392.80;88814;277;23827;-73
2023/11/17 09:21:05;;;;;;;10.20;7.10;;;;;;;3.03;100.00;100374.96;88608;273;136902;-74
2023/11/17 09:23:07;;;;;;;10.10;7.60;;;;;;;3.12;100.00;100385.37;88451;273;22527;-71
2023/11/17 09:25:15;;;;;;;10.30;8.60;;;;;;;3.12;100.00;100386.06;88426;273;138413;-70
2023/11/17 09:27:18;;;;;;;12.20;8.10;;;;;;;3.07;100.00;100382.33;88390;273;25183;-72
2023/11/17 09:29:20;;;;;;;11.50;9.40;;;;;;;3.03;100.00;100385.48;88302;273;137286;-73
2023/11/17 09:31:22;;;;;;;9.00;8.20;;;;;;;3.01;100.00;100381.08;88285;273;22530;-73
2023/11/17 09:33:24;;;;;;;11.80;8.60;;;;;;;3.01;100.00;100381.13;88320;273;136850;-72
2023/11/17 09:35:28;;;;;;;9.50;8.50;;;;;;;2.99;100.00;100380.44;90274;280;22520;-72
2023/11/17 09:37:32;;;;;;;10.30;8.10;;;;;;;3.03;100.00;100378.47;90729;280;137363;-73
2023/11/17 09:39:35;;;;;;;9.70;8.00;;;;;;;3.03;100.00;100380.77;90873;282;22520;-71